Time;durP1;ratioP1;P1;durP2;ratioP2;P2;SDS_P1;SDS_P2;PMS_P1;PMS_P2;Temp;Humidity;BMP_temperature;BMP_pressure;BME280_temperature;BME280_humidity;BME280_pressure;Samples;Min_cycle;Max_cycle;Signal;HPM_P1;HPM_P2
2022/06/20 00:02:24;;;;;;;6.23;5.40;;;26.00;65.30;26.70;95767.00;;;;5072208;28;20196;-86
2022/06/20 00:04:55;;;;;;;8.80;6.13;;;26.00;65.50;26.70;95767.00;;;;5070754;28;20242;-86
2022/06/20 00:07:25;;;;;;;7.17;5.77;;;25.90;65.30;26.60;95765.00;;;;5071874;28;20228;-85
2022/06/20 00:09:52;;;;;;;11.50;5.70;;;25.90;65.50;26.60;95765.00;;;;5070710;28;20262;-85
2022/06/20 00:12:26;;;;;;;7.33;5.60;;;25.90;65.40;26.50;95763.00;;;;5072793;28;20706;-85
2022/06/20 00:14:58;;;;;;;5.73;5.20;;;25.80;65.50;26.50;95763.00;;;;5071469;28;20184;-85
2022/06/20 00:17:28;;;;;;;7.00;5.30;;;25.80;65.50;26.50;95768.00;;;;5072166;28;20287;-85
2022/06/20 00:19:55;;;;;;;6.03;5.13;;;25.80;65.60;26.40;95762.00;;;;5072454;28;20215;-86
2022/06/20 00:22:23;;;;;;;5.70;5.20;;;25.80;65.70;26.40;95763.00;;;;5071846;28;20195;-85
2022/06/20 00:24:51;;;;;;;6.30;5.67;;;25.70;65.80;26.40;95761.00;;;;5058681;28;20205;-85
2022/06/20 00:27:18;;;;;;;6.10;5.50;;;25.70;65.90;26.30;95752.00;;;;5052359;28;20657;-85
2022/06/20 00:29:47;;;;;;;6.83;5.97;;;25.60;65.80;26.30;95757.00;;;;5064891;28;20269;-85
2022/06/20 00:32:14;;;;;;;7.70;5.83;;;25.60;66.00;26.30;95758.00;;;;5070211;28;20599;-85
2022/06/20 00:34:43;;;;;;;6.83;6.13;;;25.50;66.00;26.20;95753.00;;;;5065258;28;20254;-85
2022/06/20 00:37:18;;;;;;;5.77;5.20;;;25.50;66.10;26.20;95756.00;;;;5070882;28;20373;-85
2022/06/20 00:39:45;;;;;;;7.03;5.33;;;25.50;66.20;26.10;95756.00;;;;5072481;28;20262;-85
2022/06/20 00:42:13;;;;;;;6.03;5.07;;;25.40;66.10;26.10;95751.00;;;;5071499;28;20200;-85
2022/06/20 00:44:44;;;;;;;6.13;5.53;;;25.40;66.20;26.10;95756.00;;;;5061442;28;20200;-85
2022/06/20 00:47:19;;;;;;;5.67;5.17;;;25.40;66.40;26.00;95750.00;;;;5071455;28;20714;-85
2022/06/20 00:49:54;;;;;;;6.50;5.83;;;25.30;66.50;26.00;95752.00;;;;5070248;28;20219;-85
2022/06/20 00:52:36;;;;;;;7.57;6.57;;;25.30;66.90;26.00;95750.00;;;;5072324;28;20203;-85
2022/06/20 00:55:13;;;;;;;9.53;5.83;;;25.30;67.00;25.90;95747.00;;;;5065512;28;20177;-85
2022/06/20 00:57:47;;;;;;;9.10;6.57;;;25.20;66.90;25.90;95749.00;;;;5054248;28;20208;-85
2022/06/20 01:00:20;;;;;;;9.47;6.03;;;25.20;67.20;25.90;95744.00;;;;5072535;28;20198;-85
2022/06/20 01:02:52;;;;;;;6.10;5.60;;;25.20;67.30;25.80;95738.00;;;;5067899;28;20204;-85
2022/06/20 01:05:25;;;;;;;7.93;6.03;;;25.10;67.30;25.80;95737.00;;;;5066344;28;20192;-85
2022/06/20 01:08:01;;;;;;;7.27;5.90;;;25.10;67.60;25.80;95741.00;;;;5066565;28;20274;-85
2022/06/20 01:10:38;;;;;;;8.57;6.80;;;25.10;67.70;25.80;95742.00;;;;5066690;28;20195;-85
2022/06/20 01:13:15;;;;;;;7.07;6.37;;;25.00;67.80;25.70;95742.00;;;;5071100;28;20253;-85
2022/06/20 01:15:44;;;;;;;6.40;5.67;;;25.00;68.20;25.70;95738.00;;;;5070859;28;20188;-85
2022/06/20 01:18:17;;;;;;;6.77;6.17;;;25.00;68.00;25.70;95744.00;;;;5066177;28;20228;-85
2022/06/20 01:20:48;;;;;;;8.87;6.10;;;25.00;68.20;25.70;95745.00;;;;5071322;28;20234;-85
2022/06/20 01:23:34;;;;;;;11.83;6.67;;;25.00;68.20;25.60;95740.00;;;;5065656;28;20221;-85
2022/06/20 01:26:31;;;;;;;7.07;6.37;;;25.00;68.40;25.60;95741.00;;;;5064669;28;20203;-85
2022/06/20 01:29:05;;;;;;;9.20;6.27;;;24.90;68.80;25.60;95746.00;;;;5064526;28;20224;-85
2022/06/20 01:31:38;;;;;;;9.43;6.43;;;24.90;68.20;25.50;95737.00;;;;5075024;28;20248;-85
2022/06/20 01:34:07;;;;;;;9.90;6.53;;;24.90;68.20;25.50;95729.00;;;;5074786;28;20192;-85
2022/06/20 01:39:26;;;;;;;7.70;6.30;;;24.80;68.40;25.40;95736.00;;;;5066404;28;20265;-85
2022/06/20 01:44:47;;;;;;;7.00;6.40;;;24.70;68.40;25.40;95750.00;;;;5073028;28;20333;-86
2022/06/20 01:47:15;;;;;;;9.30;6.70;;;24.70;68.60;25.30;95740.00;;;;5071839;28;20191;-85
2022/06/20 01:49:46;;;;;;;6.83;6.23;;;24.70;68.60;25.30;95733.00;;;;5074816;28;20626;-85
2022/06/20 01:52:21;;;;;;;6.53;5.93;;;24.60;68.80;25.30;95739.00;;;;5069463;28;20188;-85
2022/06/20 01:54:56;;;;;;;7.63;6.40;;;24.60;68.90;25.30;95738.00;;;;5073358;28;20238;-85
2022/06/20 01:57:25;;;;;;;7.27;6.53;;;24.60;69.10;25.30;95733.00;;;;5054006;28;20253;-85
2022/06/20 02:00:00;;;;;;;7.17;6.13;;;24.60;69.00;25.20;95733.00;;;;5073895;28;20231;-85
2022/06/20 02:02:32;;;;;;;6.50;5.90;;;24.60;69.30;25.20;95733.00;;;;5073141;28;20196;-85
2022/06/20 02:05:02;;;;;;;6.20;5.63;;;24.50;69.20;25.20;95730.00;;;;5074871;28;20275;-85
2022/06/20 02:07:29;;;;;;;8.60;6.50;;;24.50;69.20;25.20;95747.00;;;;5071429;28;20638;-85
2022/06/20 02:09:56;;;;;;;6.67;6.03;;;24.50;69.30;25.20;95741.00;;;;5072820;28;20280;-85
2022/06/20 02:12:25;;;;;;;7.83;5.80;;;24.50;69.30;25.10;95739.00;;;;5068720;28;20199;-85
2022/06/20 02:14:59;;;;;;;6.57;5.83;;;24.40;69.40;25.10;95734.00;;;;5073587;28;20248;-86
2022/06/20 02:17:33;;;;;;;7.37;6.37;;;24.40;69.60;25.10;95741.00;;;;5069391;28;20245;-85
2022/06/20 02:20:08;;;;;;;7.33;5.87;;;24.40;69.80;25.10;95739.00;;;;5072463;28;20222;-85
2022/06/20 02:22:38;;;;;;;6.33;5.83;;;24.40;69.60;25.00;95734.00;;;;5069219;28;20253;-85
2022/06/20 02:25:11;;;;;;;7.63;6.30;;;24.30;69.70;25.00;95727.00;;;;5070787;28;20688;-85
2022/06/20 02:27:43;;;;;;;11.73;7.17;;;24.30;69.90;25.00;95738.00;;;;5071181;28;20207;-85
2022/06/20 02:30:13;;;;;;;7.77;5.83;;;24.30;70.10;25.00;95745.00;;;;5056516;28;20227;-85
2022/06/20 02:32:47;;;;;;;7.20;6.50;;;24.30;70.40;24.90;95742.00;;;;5073017;28;20222;-85
2022/06/20 02:35:21;;;;;;;7.50;6.70;;;24.20;70.40;24.90;95734.00;;;;5069730;28;20200;-85
2022/06/20 02:37:50;;;;;;;8.93;6.80;;;24.20;70.60;24.90;95739.00;;;;5073478;28;20183;-85
2022/06/20 02:40:21;;;;;;;7.33;6.30;;;24.20;70.50;24.90;95752.00;;;;5073553;28;20227;-85
2022/06/20 02:42:57;;;;;;;7.73;7.00;;;24.20;70.60;24.90;95753.00;;;;5073413;28;20261;-86
2022/06/20 02:45:27;;;;;;;7.43;6.67;;;24.20;70.80;24.90;95752.00;;;;5074306;28;20593;-85
2022/06/20 02:48:05;;;;;;;7.07;6.47;;;24.20;70.80;24.90;95750.00;;;;5067020;28;20187;-85
2022/06/20 02:50:37;;;;;;;7.93;6.40;;;24.20;71.20;24.80;95748.00;;;;5072703;28;20720;-85
2022/06/20 02:53:10;;;;;;;7.10;6.37;;;24.10;70.80;24.80;95751.00;;;;5073986;28;20322;-85
2022/06/20 02:55:42;;;;;;;12.20;6.60;;;24.20;71.00;24.80;95746.00;;;;5073773;28;20215;-85
2022/06/20 02:58:16;;;;;;;7.37;6.63;;;24.10;70.80;24.80;95743.00;;;;5073455;28;20234;-85
2022/06/20 03:00:59;;;;;;;10.63;7.23;;;24.10;71.10;24.80;95744.00;;;;5073734;28;20260;-85
2022/06/20 03:03:36;;;;;;;7.80;6.60;;;24.10;71.30;24.80;95748.00;;;;5073885;28;20223;-85
2022/06/20 03:06:07;;;;;;;7.80;6.87;;;24.10;71.00;24.80;95736.00;;;;5067735;28;20199;-85
2022/06/20 03:08:34;;;;;;;9.33;7.00;;;24.00;70.90;24.70;95741.00;;;;5073925;28;20214;-85
2022/06/20 03:11:04;;;;;;;8.90;7.57;;;24.00;71.00;24.70;95734.00;;;;5071003;28;20204;-84
2022/06/20 03:13:34;;;;;;;7.10;6.40;;;24.00;71.00;24.70;95744.00;;;;5070835;28;20773;-84
2022/06/20 03:16:06;;;;;;;8.13;6.83;;;24.00;71.00;24.70;95737.00;;;;5070770;28;20200;-85
2022/06/20 03:18:41;;;;;;;7.70;6.40;;;24.00;71.20;24.70;95734.00;;;;5071441;28;20249;-85
2022/06/20 03:21:09;;;;;;;7.03;6.33;;;24.00;71.10;24.70;95735.00;;;;5056790;28;20195;-85
2022/06/20 03:23:37;;;;;;;7.80;7.00;;;24.00;70.90;24.70;95729.00;;;;5071944;28;20198;-85
2022/06/20 03:26:13;;;;;;;11.60;6.90;;;23.90;70.90;24.60;95741.00;;;;5056533;28;20727;-85
2022/06/20 03:28:41;;;;;;;6.93;6.23;;;23.90;70.90;24.60;95742.00;;;;5068454;28;20274;-85
2022/06/20 03:31:12;;;;;;;6.97;6.27;;;23.90;71.00;24.60;95748.00;;;;5063103;28;20210;-85
2022/06/20 03:33:40;;;;;;;9.43;6.60;;;23.90;71.30;24.60;95743.00;;;;5071591;28;20218;-85
2022/06/20 03:36:13;;;;;;;9.03;6.77;;;23.90;71.10;24.60;95741.00;;;;5064893;28;20202;-85
2022/06/20 03:38:47;;;;;;;7.77;6.13;;;23.90;71.20;24.60;95738.00;;;;5070937;28;20227;-85
2022/06/20 03:41:21;;;;;;;7.37;6.47;;;23.90;71.30;24.60;95748.00;;;;5069904;28;20205;-85
2022/06/20 03:43:55;;;;;;;8.10;6.10;;;23.90;71.30;24.60;95748.00;;;;5072295;28;20188;-85
2022/06/20 03:46:30;;;;;;;8.80;6.60;;;23.90;71.40;24.60;95741.00;;;;5072592;28;20255;-86
2022/06/20 03:49:05;;;;;;;11.73;7.17;;;23.90;71.60;24.60;95737.00;;;;5070439;28;20294;-86
2022/06/20 03:51:42;;;;;;;13.83;7.13;;;23.90;71.60;24.50;95737.00;;;;5072469;28;20263;-85
2022/06/20 03:54:17;;;;;;;7.43;6.77;;;23.90;71.80;24.60;95740.00;;;;5068365;28;20285;-86
2022/06/20 03:56:55;;;;;;;10.43;6.17;;;23.80;72.00;24.60;95748.00;;;;5063479;28;20224;-85
2022/06/20 03:59:29;;;;;;;10.73;7.00;;;23.90;72.20;24.60;95745.00;;;;5068134;28;20214;-86
2022/06/20 04:02:08;;;;;;;10.73;7.13;;;23.80;72.00;24.60;95739.00;;;;5071268;28;20608;-84
2022/06/20 04:04:49;;;;;;;9.13;6.67;;;23.90;72.30;24.60;95747.00;;;;5070716;28;20600;-83
2022/06/20 04:07:22;;;;;;;11.73;6.87;;;23.90;72.60;24.60;95743.00;;;;5070888;28;20190;-84
2022/06/20 04:12:53;;;;;;;11.37;6.87;;;23.90;72.50;24.70;95757.00;;;;5037661;28;20201;-83
2022/06/20 04:15:26;;;;;;;11.40;6.30;;;23.90;72.60;24.80;95757.00;;;;5066634;28;20195;-82
2022/06/20 04:20:59;;;;;;;10.27;5.73;;;24.00;72.90;24.90;95763.00;;;;5069612;28;20289;-83
2022/06/20 04:23:35;;;;;;;12.20;6.73;;;24.00;72.70;25.00;95762.00;;;;5072412;28;20183;-83
2022/06/20 04:26:20;;;;;;;8.13;5.70;;;24.10;72.80;25.10;95765.00;;;;5060797;28;20192;-84
2022/06/20 04:28:54;;;;;;;7.97;6.03;;;24.20;72.50;25.20;95767.00;;;;5071105;28;20219;-84
2022/06/20 04:31:37;;;;;;;9.30;6.30;;;24.20;71.90;25.30;95773.00;;;;5065468;28;20250;-84
2022/06/20 04:34:17;;;;;;;8.77;5.60;;;24.30;71.90;25.40;95779.00;;;;5051906;28;20601;-84
2022/06/20 04:36:56;;;;;;;10.20;5.33;;;24.40;71.40;25.50;95785.00;;;;5070693;28;20249;-84
2022/06/20 04:39:37;;;;;;;8.27;5.27;;;24.50;71.10;25.60;95790.00;;;;5069725;28;20242;-84
2022/06/20 04:42:14;;;;;;;8.67;5.60;;;24.60;70.40;25.70;95788.00;;;;5063771;28;20210;-84
2022/06/20 04:44:50;;;;;;;8.73;5.77;;;24.70;70.10;25.80;95791.00;;;;5071171;28;20233;-84
2022/06/20 04:47:39;;;;;;;6.00;4.93;;;24.70;69.90;25.90;95791.00;;;;5064499;28;20203;-83
2022/06/20 04:50:18;;;;;;;10.17;5.63;;;24.90;69.70;25.90;95801.00;;;;5067594;28;20219;-84
2022/06/20 04:52:48;;;;;;;7.70;5.23;;;25.00;69.40;26.00;95802.00;;;;5071926;28;20628;-84
2022/06/20 04:55:22;;;;;;;9.13;5.70;;;25.00;69.40;26.10;95803.00;;;;5069967;28;20196;-84
2022/06/20 04:57:51;;;;;;;6.97;5.03;;;25.10;69.20;26.10;95819.00;;;;5082936;22;20250;-84
2022/06/20 05:00:22;;;;;;;9.27;5.53;;;25.20;68.80;26.20;95809.00;;;;5090489;28;20292;-82
2022/06/20 05:02:54;;;;;;;8.77;5.47;;;25.20;68.10;26.30;95814.00;;;;5094739;28;20223;-82
2022/06/20 05:05:30;;;;;;;9.77;5.67;;;25.30;67.80;26.30;95806.00;;;;5093527;28;20700;-82
2022/06/20 05:07:58;;;;;;;7.27;5.37;;;25.40;67.60;26.40;95815.00;;;;5088159;28;20216;-83
2022/06/20 05:10:34;;;;;;;5.87;4.83;;;25.50;67.70;26.50;95824.00;;;;5069447;28;20631;-83
2022/06/20 05:13:12;;;;;;;7.17;5.23;;;25.50;67.20;26.50;95829.00;;;;5074610;28;20216;-84
2022/06/20 05:15:43;;;;;;;11.80;6.27;;;25.60;66.80;26.60;95821.00;;;;5062580;28;20200;-84
2022/06/20 05:18:18;;;;;;;10.40;5.43;;;25.60;66.70;26.70;95832.00;;;;5067170;28;20247;-84
2022/06/20 05:20:48;;;;;;;9.17;5.27;;;25.70;67.00;26.70;95829.00;;;;5061783;28;20257;-82
2022/06/20 05:23:24;;;;;;;11.33;5.27;;;25.80;67.90;26.80;95844.00;;;;5073900;28;20238;-82
2022/06/20 05:25:53;;;;;;;6.57;5.13;;;25.80;68.90;26.80;95846.00;;;;5060994;28;20291;-82
2022/06/20 05:28:24;;;;;;;5.37;4.93;;;25.90;68.80;26.80;95846.00;;;;5059793;28;20303;-83
2022/06/20 05:30:52;;;;;;;8.03;5.07;;;25.90;68.90;26.80;95859.00;;;;5069064;28;20254;-83
2022/06/20 05:33:29;;;;;;;7.60;5.60;;;25.90;68.80;26.80;95861.00;;;;5065656;28;20311;-83
2022/06/20 05:36:03;;;;;;;6.13;4.73;;;25.90;69.00;26.80;95869.00;;;;5065594;28;20200;-83
2022/06/20 05:38:37;;;;;;;9.60;5.33;;;25.90;69.10;26.80;95871.00;;;;5070505;28;20208;-82
2022/06/20 05:41:07;;;;;;;9.20;5.60;;;25.90;69.30;26.80;95866.00;;;;5071415;28;20234;-82
2022/06/20 05:43:37;;;;;;;10.87;5.90;;;25.90;69.20;26.80;95861.00;;;;5073183;28;20903;-83
2022/06/20 05:46:08;;;;;;;5.83;5.03;;;25.90;69.00;26.80;95853.00;;;;5071019;28;20269;-83
2022/06/20 05:48:43;;;;;;;11.13;6.07;;;25.90;69.00;26.80;95842.00;;;;5072447;28;20216;-83
2022/06/20 05:51:17;;;;;;;7.57;5.07;;;26.00;68.70;26.90;95858.00;;;;5071576;28;20264;-83
2022/06/20 05:53:50;;;;;;;8.60;5.43;;;26.00;69.20;26.90;95859.00;;;;5063055;28;20743;-83
2022/06/20 05:56:25;;;;;;;8.17;5.43;;;26.00;69.10;26.90;95869.00;;;;5072295;28;20215;-83
2022/06/20 05:58:55;;;;;;;12.47;5.53;;;26.00;69.10;26.90;95870.00;;;;5064252;28;20708;-83
2022/06/20 06:01:31;;;;;;;6.97;5.53;;;26.00;69.10;26.90;95883.00;;;;5071632;28;20282;-83
2022/06/20 06:04:08;;;;;;;10.73;5.30;;;26.00;69.50;26.90;95891.00;;;;5058953;28;20616;-83
2022/06/20 06:06:46;;;;;;;11.97;5.90;;;26.00;69.70;26.90;95894.00;;;;5072304;28;20223;-83
2022/06/20 06:09:22;;;;;;;8.80;5.33;;;26.00;69.40;27.00;95890.00;;;;5063093;28;20227;-83
2022/06/20 06:11:57;;;;;;;7.83;5.20;;;26.00;69.70;27.10;95893.00;;;;5062926;28;20230;-83
2022/06/20 06:14:33;;;;;;;7.17;5.27;;;26.10;70.20;27.10;95888.00;;;;5073480;28;20207;-83
2022/06/20 06:17:06;;;;;;;8.40;5.20;;;26.20;70.30;27.20;95895.00;;;;5066598;28;20723;-83
2022/06/20 06:19:44;;;;;;;7.70;4.80;;;26.20;70.20;27.30;95905.00;;;;5070766;28;20204;-83
2022/06/20 06:22:19;;;;;;;5.97;4.50;;;26.30;70.00;27.40;95908.00;;;;5073695;28;20184;-83
2022/06/20 06:24:52;;;;;;;8.40;4.20;;;26.30;70.10;27.50;95916.00;;;;5072169;28;20202;-82
2022/06/20 06:27:24;;;;;;;5.50;3.70;;;26.40;68.20;27.50;95914.00;;;;5069678;28;20239;-83
2022/06/20 06:30:00;;;;;;;7.43;3.50;;;26.50;67.30;27.60;95920.00;;;;5069663;28;20289;-83
2022/06/20 06:32:34;;;;;;;5.50;3.60;;;26.50;65.90;27.70;95929.00;;;;5074175;28;20195;-82
2022/06/20 06:35:15;;;;;;;5.57;3.40;;;26.60;65.80;27.80;95926.00;;;;5071040;28;20225;-83
2022/06/20 06:37:53;;;;;;;5.40;3.13;;;26.70;63.90;27.90;95934.00;;;;5074411;28;20236;-83
2022/06/20 06:40:31;;;;;;;3.70;3.35;;;26.80;63.30;28.00;95932.00;;;;5065462;28;20210;-83
2022/06/20 06:43:00;;;;;;;6.23;3.40;;;26.90;63.00;28.10;95929.00;;;;5070263;28;20203;-84
2022/06/20 06:45:33;;;;;;;4.60;3.03;;;27.00;63.10;28.20;95935.00;;;;5071451;28;20223;-83
2022/06/20 06:48:09;;;;;;;4.72;3.10;;;27.10;63.30;28.30;95948.00;;;;5071961;28;20239;-83
2022/06/20 06:50:43;;;;;;;6.38;3.08;;;27.10;62.00;28.40;95956.00;;;;5071707;28;20273;-83
2022/06/20 06:53:22;;;;;;;6.40;3.20;;;27.20;61.60;28.40;95949.00;;;;5070670;28;20219;-83
2022/06/20 06:55:55;;;;;;;5.60;2.75;;;27.30;60.70;28.50;95954.00;;;;5068828;28;20280;-83
2022/06/20 06:58:31;;;;;;;6.70;3.33;;;27.40;60.00;28.50;95956.00;;;;5064385;28;20302;-82
2022/06/20 07:01:07;;;;;;;4.95;2.92;;;27.40;59.60;28.50;95951.00;;;;5073969;28;20196;-83
2022/06/20 07:03:41;;;;;;;3.95;2.50;;;27.50;59.90;28.60;95956.00;;;;5073429;28;20196;-83
2022/06/20 07:06:18;;;;;;;4.80;2.58;;;27.50;58.70;28.70;95960.00;;;;5070582;28;20196;-84
2022/06/20 07:08:54;;;;;;;5.03;2.38;;;27.60;58.70;28.90;95971.00;;;;5069611;28;20584;-83
2022/06/20 07:11:25;;;;;;;3.60;2.78;;;27.80;59.60;29.10;95972.00;;;;5071797;28;20345;-84
2022/06/20 07:14:03;;;;;;;4.85;2.70;;;27.90;59.40;29.30;95967.00;;;;5067110;28;20193;-83
2022/06/20 07:16:39;;;;;;;5.28;2.85;;;28.00;59.00;29.50;95988.00;;;;5061792;28;20685;-83
2022/06/20 07:19:09;;;;;;;4.28;2.47;;;28.20;58.10;29.60;95997.00;;;;5071935;28;20216;-83
2022/06/20 07:21:39;;;;;;;5.72;2.55;;;28.30;57.90;29.70;95998.00;;;;5074750;28;20208;-84
2022/06/20 07:24:16;;;;;;;4.65;2.40;;;28.40;57.30;29.80;96009.00;;;;5072428;28;20189;-83
2022/06/20 07:26:51;;;;;;;3.22;2.45;;;28.50;56.60;29.90;96004.00;;;;5076742;28;20704;-83
2022/06/20 07:29:25;;;;;;;4.60;2.55;;;28.70;56.20;30.00;96005.00;;;;5073388;28;20622;-83
2022/06/20 07:31:59;;;;;;;5.88;2.28;;;28.80;55.80;30.00;96005.00;;;;5088138;28;20716;-83
2022/06/20 07:34:34;;;;;;;5.18;2.80;;;28.90;56.50;30.10;96004.00;;;;5070476;28;20286;-83
2022/06/20 07:37:09;;;;;;;10.50;3.03;;;28.90;55.50;30.30;96001.00;;;;5074116;28;20227;-83
2022/06/20 07:39:47;;;;;;;4.65;2.65;;;29.00;55.20;30.40;96001.00;;;;5073714;28;20207;-83
2022/06/20 07:42:28;;;;;;;4.32;3.10;;;29.20;55.20;30.50;96003.00;;;;5073188;28;20223;-83
2022/06/20 07:45:01;;;;;;;3.92;2.30;;;29.20;55.70;30.60;95999.00;;;;5062928;28;20229;-83
2022/06/20 07:47:34;;;;;;;3.97;2.53;;;29.40;55.30;30.80;96008.00;;;;5070444;28;20219;-82
2022/06/20 07:50:07;;;;;;;5.50;2.50;;;29.50;54.70;30.90;96008.00;;;;5067435;28;20247;-83
2022/06/20 07:52:40;;;;;;;5.18;2.55;;;29.60;55.20;31.00;96012.00;;;;5071155;28;20204;-83
2022/06/20 07:55:18;;;;;;;4.22;2.78;;;29.70;55.10;31.20;96015.00;;;;5068691;28;20192;-83
2022/06/20 07:57:52;;;;;;;3.03;2.28;;;29.80;54.10;31.40;96029.00;;;;5066553;28;20574;-84
2022/06/20 08:00:24;;;;;;;4.25;2.78;;;30.00;54.60;31.60;96030.00;;;;5070107;28;20295;-82
2022/06/20 08:02:58;;;;;;;5.43;2.75;;;30.10;54.00;31.80;96039.00;;;;5072173;28;20211;-82
2022/06/20 08:05:30;;;;;;;3.10;2.22;;;30.30;53.80;32.00;96045.00;;;;5067262;28;20203;-82
2022/06/20 08:08:07;;;;;;;3.78;2.55;;;30.40;54.00;32.10;96041.00;;;;5071968;28;20247;-82
2022/06/20 08:10:44;;;;;;;2.97;2.40;;;30.60;53.80;32.20;96045.00;;;;5065309;28;20251;-82
2022/06/20 08:13:20;;;;;;;2.92;2.45;;;30.70;52.60;32.30;96054.00;;;;5070770;28;20196;-80
2022/06/20 08:15:57;;;;;;;2.72;2.25;;;30.80;52.70;32.40;96055.00;;;;5071810;28;20792;-81
2022/06/20 08:18:26;;;;;;;4.95;2.13;;;31.00;51.80;32.40;96057.00;;;;5067056;28;20215;-80
2022/06/20 08:20:59;;;;;;;3.65;2.47;;;31.00;52.00;32.40;96066.00;;;;5067460;28;20228;-80
2022/06/20 08:23:35;;;;;;;4.13;2.38;;;31.10;51.90;32.40;96078.00;;;;5069839;28;20296;-80
2022/06/20 08:26:12;;;;;;;4.80;3.70;;;31.10;52.10;32.40;96083.00;;;;5073918;28;20283;-81
2022/06/20 08:28:49;;;;;;;5.75;2.88;;;31.20;51.10;32.40;96087.00;;;;5069539;28;20277;-81
2022/06/20 08:31:23;;;;;;;5.88;3.00;;;31.20;50.70;32.40;96085.00;;;;5070010;28;20204;-80
2022/06/20 08:33:57;;;;;;;4.20;2.70;;;31.20;50.70;32.40;96096.00;;;;5064354;28;20220;-80
2022/06/20 08:36:33;;;;;;;5.82;2.70;;;31.20;50.30;32.30;96100.00;;;;5072355;28;20280;-80
2022/06/20 08:39:09;;;;;;;5.45;3.08;;;31.20;50.40;32.40;96095.00;;;;5076195;28;20219;-81
2022/06/20 08:42:17;;;;;;;3.53;2.83;;;31.20;50.70;32.50;96095.00;;;;5073595;28;20218;-81
2022/06/20 08:45:16;;;;;;;4.30;3.50;;;31.20;50.30;32.50;96094.00;;;;5071226;28;20235;-80
2022/06/20 08:48:26;;;;;;;4.05;2.75;;;31.30;50.60;32.60;96097.00;;;;5076211;28;20721;-81
2022/06/20 08:52:06;;;;;;;5.00;2.60;;;31.30;50.50;32.70;96106.00;;;;5070485;28;20266;-81
2022/06/20 08:55:25;;;;;;;4.20;2.75;;;31.40;50.70;32.70;96103.00;;;;5072855;28;20574;-81
2022/06/20 08:58:08;;;;;;;6.43;3.10;;;31.50;50.60;32.80;96101.00;;;;5065206;28;20258;-81
2022/06/20 09:00:46;;;;;;;3.63;2.80;;;31.50;50.60;32.80;96099.00;;;;5075517;28;20754;-80
2022/06/20 09:03:51;;;;;;;3.25;2.65;;;31.50;50.40;32.80;96083.00;;;;5076389;28;20219;-80
2022/06/20 09:06:56;;;;;;;3.90;3.03;;;31.60;50.10;33.00;96085.00;;;;5076178;28;20192;-80
2022/06/20 09:09:56;;;;;;;4.05;2.63;;;31.70;50.40;33.10;96087.00;;;;5075884;28;20230;-81
2022/06/20 09:13:02;;;;;;;2.80;2.50;;;31.70;50.30;33.30;96089.00;;;;5074574;28;20318;-81
2022/06/20 09:15:47;;;;;;;2.85;2.42;;;31.80;49.90;33.30;96095.00;;;;5048212;28;20240;-81
2022/06/20 09:18:29;;;;;;;2.60;2.38;;;31.90;49.20;33.40;96108.00;;;;5075491;28;20219;-81
2022/06/20 09:21:17;;;;;;;2.97;2.42;;;31.90;49.00;33.40;96104.00;;;;5075900;28;20573;-80
2022/06/20 09:24:11;;;;;;;4.07;2.25;;;32.00;48.70;33.40;96110.00;;;;5075381;28;20253;-81
2022/06/20 09:26:47;;;;;;;4.78;2.30;;;32.10;48.40;33.40;96111.00;;;;5055262;28;20644;-81
2022/06/20 09:29:48;;;;;;;5.43;2.75;;;32.10;48.70;33.40;96108.00;;;;5072864;28;20288;-82
2022/06/20 09:33:10;;;;;;;2.22;1.90;;;32.10;47.70;33.50;96102.00;;;;5074637;28;20727;-82
2022/06/20 09:36:34;;;;;;;2.72;2.38;;;32.20;48.10;33.80;96097.00;;;;5075409;28;20220;-82
2022/06/20 09:39:41;;;;;;;2.40;1.95;;;32.30;48.80;34.00;96089.00;;;;5069697;28;20234;-81
2022/06/20 09:42:21;;;;;;;3.90;2.42;;;32.40;47.90;34.30;96087.00;;;;5074753;28;20210;-82
2022/06/20 09:45:05;;;;;;;1.95;1.85;;;32.60;47.80;34.50;96090.00;;;;5074431;28;20206;-82
2022/06/20 09:47:51;;;;;;;2.22;2.13;;;32.80;47.30;34.70;96087.00;;;;5074199;28;20216;-82
2022/06/20 09:50:41;;;;;;;2.35;1.80;;;33.10;48.00;35.00;96088.00;;;;5074003;28;20196;-82
2022/06/20 09:53:25;;;;;;;2.78;1.90;;;33.30;47.50;35.40;96084.00;;;;5069736;28;20223;-82
2022/06/20 09:56:06;;;;;;;2.22;1.92;;;33.60;46.80;35.60;96087.00;;;;5074768;28;20196;-82
2022/06/20 09:58:49;;;;;;;2.40;1.98;;;33.90;46.50;35.90;96087.00;;;;5074879;28;20311;-82
2022/06/20 10:01:32;;;;;;;4.45;2.30;;;34.10;46.40;36.10;96086.00;;;;5081174;28;20218;-82
2022/06/20 10:04:14;;;;;;;2.53;2.20;;;34.30;45.50;36.30;96082.00;;;;5075836;28;20191;-82
2022/06/20 10:06:57;;;;;;;3.08;2.08;;;34.50;45.50;36.40;96088.00;;;;5076794;28;20222;-81
2022/06/20 10:09:39;;;;;;;3.95;2.22;;;34.70;45.50;36.40;96088.00;;;;5075341;28;20208;-82
2022/06/20 10:12:18;;;;;;;3.38;2.05;;;34.80;44.10;36.40;96076.00;;;;5073831;28;20760;-82
2022/06/20 10:14:59;;;;;;;5.45;2.03;;;34.90;43.70;36.40;96078.00;;;;5072946;28;20235;-81
2022/06/20 10:17:40;;;;;;;4.18;2.22;;;34.90;43.50;36.30;96092.00;;;;5073590;28;20223;-82
2022/06/20 10:20:31;;;;;;;3.33;2.25;;;34.90;43.10;36.20;96079.00;;;;5070376;28;20196;-82
2022/06/20 10:23:16;;;;;;;4.70;2.10;;;34.90;42.40;36.00;96081.00;;;;5076933;28;20203;-82
2022/06/20 10:26:13;;;;;;;2.25;1.92;;;34.80;42.40;35.80;96077.00;;;;5077066;28;20546;-82
2022/06/20 10:28:48;;;;;;;4.57;2.13;;;34.70;42.40;35.70;96075.00;;;;5074409;28;20434;-84
2022/06/20 10:31:34;;;;;;;2.60;2.08;;;34.70;43.30;35.70;96072.00;;;;5072639;28;20315;-83
2022/06/20 10:34:10;;;;;;;5.45;2.47;;;34.60;42.70;35.80;96069.00;;;;5079260;28;20192;-83
2022/06/20 10:36:51;;;;;;;3.45;2.10;;;34.70;43.00;35.90;96074.00;;;;5076346;28;20252;-83
2022/06/20 10:39:42;;;;;;;3.10;2.00;;;34.70;43.30;36.00;96070.00;;;;5077318;28;20212;-81
2022/06/20 10:42:31;;;;;;;2.20;2.00;;;34.80;42.80;36.00;96072.00;;;;5076897;28;20269;-81
2022/06/20 10:45:32;;;;;;;6.20;2.33;;;34.90;42.70;36.10;96066.00;;;;5076245;28;20685;-81
2022/06/20 10:48:37;;;;;;;5.50;2.50;;;35.00;42.60;36.20;96063.00;;;;5075647;28;20312;-82
2022/06/20 10:51:15;;;;;;;2.22;1.98;;;35.20;42.60;36.30;96066.00;;;;5066378;28;20246;-82
2022/06/20 10:54:00;;;;;;;2.88;1.95;;;35.30;42.20;36.50;96075.00;;;;5073457;28;20231;-82
2022/06/20 10:56:38;;;;;;;3.75;2.13;;;35.40;42.00;36.60;96063.00;;;;5074642;28;20223;-82
2022/06/20 10:59:31;;;;;;;3.00;1.95;;;35.50;42.60;36.80;96077.00;;;;5112522;22;20243;-79
2022/06/20 11:02:18;;;;;;;4.28;1.95;;;35.60;41.90;36.90;96073.00;;;;5086871;28;20618;-80
2022/06/20 11:05:06;;;;;;;4.40;1.90;;;35.60;41.90;36.90;96067.00;;;;5094365;28;20199;-80
2022/06/20 11:07:49;;;;;;;2.30;1.60;;;35.70;41.60;36.90;96067.00;;;;5094967;28;20211;-80
2022/06/20 11:10:36;;;;;;;4.35;2.00;;;35.70;41.10;36.80;96073.00;;;;5086378;28;20232;-81
2022/06/20 11:13:18;;;;;;;2.38;1.70;;;35.70;40.90;36.70;96071.00;;;;5075387;28;20785;-82
2022/06/20 11:15:55;;;;;;;4.70;2.20;;;35.60;40.60;36.60;96067.00;;;;5073870;28;20602;-79
2022/06/20 11:18:51;;;;;;;2.83;1.98;;;35.50;39.90;36.40;96059.00;;;;5074716;28;20265;-83
2022/06/20 11:21:30;;;;;;;3.22;2.00;;;35.40;40.70;36.30;96069.00;;;;5058154;28;20185;-81
2022/06/20 11:24:19;;;;;;;2.83;2.10;;;35.30;41.00;36.20;96074.00;;;;5059077;28;20525;-80
2022/06/20 11:27:03;;;;;;;3.45;1.90;;;35.20;40.50;36.00;96059.00;;;;5056232;28;20654;-83
2022/06/20 11:30:00;;;;;;;3.40;1.83;;;35.00;40.10;35.90;96064.00;;;;5055305;28;20223;-80
2022/06/20 11:32:45;;;;;;;2.33;2.10;;;35.00;41.50;35.70;96062.00;;;;5085623;28;20219;-80
2022/06/20 11:35:34;;;;;;;1.85;1.30;;;34.90;40.90;35.60;96064.00;;;;5093806;28;20214;-83
2022/06/20 11:38:43;;;;;;;1.80;1.65;;;34.70;40.30;35.50;96061.00;;;;5094815;28;20219;-80
2022/06/20 11:41:15;;;;;;;3.60;2.25;;;34.60;40.20;35.40;96051.00;;;;5091290;28;20282;-79
2022/06/20 11:44:19;;;;;;;1.60;1.48;;;34.50;40.60;35.30;96067.00;;;;5094526;28;20202;-80
2022/06/20 11:47:30;;;;;;;4.18;1.70;;;34.40;40.50;35.20;96057.00;;;;5089245;28;20219;-80
2022/06/20 11:50:32;;;;;;;2.83;1.55;;;34.40;40.90;35.20;96069.00;;;;5059998;28;20231;-80
2022/06/20 11:53:20;;;;;;;1.60;1.50;;;34.30;40.80;35.20;96068.00;;;;5073963;28;20272;-82
2022/06/20 11:55:53;;;;;;;1.70;1.60;;;34.20;40.60;35.20;96049.00;;;;5069674;28;20188;-81